sensor_id;sensor_type;location;lat;lon;timestamp;temperature;humidity
19007;DHT22;9636;47.382;8.480;2023-12-04T00:01:27;-1.70;99.90
19007;DHT22;9636;47.382;8.480;2023-12-04T00:03:55;-1.50;99.90
19007;DHT22;9636;47.382;8.480;2023-12-04T00:06:22;-1.80;99.90
19007;DHT22;9636;47.382;8.480;2023-12-04T00:08:49;-2.00;99.90
19007;DHT22;9636;47.382;8.480;2023-12-04T00:11:15;-1.80;99.90
19007;DHT22;9636;47.382;8.480;2023-12-04T00:13:42;-2.10;99.90
19007;DHT22;9636;47.382;8.480;2023-12-04T00:16:09;-1.40;99.90
19007;DHT22;9636;47.382;8.480;2023-12-04T00:18:35;-1.50;99.90
19007;DHT22;9636;47.382;8.480;2023-12-04T00:21:04;-1.50;99.90
19007;DHT22;9636;47.382;8.480;2023-12-04T00:23:30;-1.70;99.90
19007;DHT22;9636;47.382;8.480;2023-12-04T00:25:57;-1.60;99.90
19007;DHT22;9636;47.382;8.480;2023-12-04T00:28:24;-1.50;99.90
19007;DHT22;9636;47.382;8.480;2023-12-04T00:30:51;-1.40;99.90
19007;DHT22;9636;47.382;8.480;2023-12-04T00:33:17;-1.00;99.90
19007;DHT22;9636;47.382;8.480;2023-12-04T00:35:44;-1.20;99.90
19007;DHT22;9636;47.382;8.480;2023-12-04T00:38:12;-1.30;99.90
19007;DHT22;9636;47.382;8.480;2023-12-04T00:40:38;-1.00;99.90
19007;DHT22;9636;47.382;8.480;2023-12-04T00:43:05;-0.80;99.90
19007;DHT22;9636;47.382;8.480;2023-12-04T00:45:32;-0.90;99.90
19007;DHT22;9636;47.382;8.480;2023-12-04T00:47:58;-1.20;99.90
19007;DHT22;9636;47.382;8.480;2023-12-04T00:50:25;-1.40;99.90
19007;DHT22;9636;47.382;8.480;2023-12-04T00:52:52;-1.40;99.90
19007;DHT22;9636;47.382;8.480;2023-12-04T00:55:20;-1.50;99.90
19007;DHT22;9636;47.382;8.480;2023-12-04T00:57:46;-1.70;99.90
19007;DHT22;9636;47.382;8.480;2023-12-04T01:00:13;-1.60;99.90
19007;DHT22;9636;47.382;8.480;2023-12-04T01:02:40;-1.50;99.90
19007;DHT22;9636;47.382;8.480;2023-12-04T01:05:07;-1.30;99.90
19007;DHT22;9636;47.382;8.480;2023-12-04T01:07:33;-0.90;99.90
19007;DHT22;9636;47.382;8.480;2023-12-04T01:10:00;-1.50;99.90
19007;DHT22;9636;47.382;8.480;2023-12-04T01:12:28;-2.50;99.90
19007;DHT22;9636;47.382;8.480;2023-12-04T01:14:55;-2.50;99.90
19007;DHT22;9636;47.382;8.480;2023-12-04T01:17:21;-2.50;99.90
19007;DHT22;9636;47.382;8.480;2023-12-04T01:19:48;-2.70;99.90
19007;DHT22;9636;47.382;8.480;2023-12-04T01:22:15;-2.50;99.90
19007;DHT22;9636;47.382;8.480;2023-12-04T01:24:42;-1.90;99.90
19007;DHT22;9636;47.382;8.480;2023-12-04T01:27:08;-1.40;99.90
19007;DHT22;9636;47.382;8.480;2023-12-04T01:29:37;-1.00;99.90
19007;DHT22;9636;47.382;8.480;2023-12-04T01:32:04;-0.90;99.90
19007;DHT22;9636;47.382;8.480;2023-12-04T01:34:31;-0.90;99.90
19007;DHT22;9636;47.382;8.480;2023-12-04T01:36:58;-0.80;99.90
19007;DHT22;9636;47.382;8.480;2023-12-04T01:39:24;-1.10;99.90
19007;DHT22;9636;47.382;8.480;2023-12-04T01:41:51;-1.00;99.90
19007;DHT22;9636;47.382;8.480;2023-12-04T01:44:18;-1.70;99.90
19007;DHT22;9636;47.382;8.480;2023-12-04T01:46:46;-1.90;99.90
19007;DHT22;9636;47.382;8.480;2023-12-04T01:49:13;-2.10;99.90
19007;DHT22;9636;47.382;8.480;2023-12-04T01:51:39;-1.90;99.90
19007;DHT22;9636;47.382;8.480;2023-12-04T01:54:06;-1.40;99.90
19007;DHT22;9636;47.382;8.480;2023-12-04T01:56:33;-1.20;99.90
19007;DHT22;9636;47.382;8.480;2023-12-04T01:59:00;-1.60;99.90
19007;DHT22;9636;47.382;8.480;2023-12-04T02:01:27;-1.80;99.90
19007;DHT22;9636;47.382;8.480;2023-12-04T02:03:56;-2.30;99.90
19007;DHT22;9636;47.382;8.480;2023-12-04T02:06:24;-2.40;99.90
19007;DHT22;9636;47.382;8.480;2023-12-04T02:08:51;-1.90;99.90
19007;DHT22;9636;47.382;8.480;2023-12-04T02:11:17;-1.80;99.90
19007;DHT22;9636;47.382;8.480;2023-12-04T02:13:44;-2.10;99.90
19007;DHT22;9636;47.382;8.480;2023-12-04T02:16:11;-2.20;99.90
19007;DHT22;9636;47.382;8.480;2023-12-04T02:18:39;-2.20;99.90
19007;DHT22;9636;47.382;8.480;2023-12-04T02:21:07;-1.70;99.90
19007;DHT22;9636;47.382;8.480;2023-12-04T02:23:34;-1.40;99.90
19007;DHT22;9636;47.382;8.480;2023-12-04T02:26:03;-1.10;99.90
19007;DHT22;9636;47.382;8.480;2023-12-04T02:28:31;-1.00;99.90
19007;DHT22;9636;47.382;8.480;2023-12-04T02:30:58;-1.10;99.90
19007;DHT22;9636;47.382;8.480;2023-12-04T02:33:26;-0.90;99.90
19007;DHT22;9636;47.382;8.480;2023-12-04T02:35:53;-1.30;99.90
19007;DHT22;9636;47.382;8.480;2023-12-04T02:38:21;-1.50;99.90
19007;DHT22;9636;47.382;8.480;2023-12-04T02:40:47;-2.00;99.90
19007;DHT22;9636;47.382;8.480;2023-12-04T02:43:15;-2.30;99.90
19007;DHT22;9636;47.382;8.480;2023-12-04T02:45:42;-2.30;99.90
19007;DHT22;9636;47.382;8.480;2023-12-04T02:48:09;-1.80;99.90
19007;DHT22;9636;47.382;8.480;2023-12-04T02:50:36;-1.40;99.90
19007;DHT22;9636;47.382;8.480;2023-12-04T02:53:02;-1.00;99.90
19007;DHT22;9636;47.382;8.480;2023-12-04T02:55:29;-1.30;99.90
19007;DHT22;9636;47.382;8.480;2023-12-04T02:57:56;-1.50;99.90
19007;DHT22;9636;47.382;8.480;2023-12-04T03:00:23;-1.40;99.90
19007;DHT22;9636;47.382;8.480;2023-12-04T03:02:50;-1.30;99.90
19007;DHT22;9636;47.382;8.480;2023-12-04T03:05:17;-1.80;99.90
19007;DHT22;9636;47.382;8.480;2023-12-04T03:07:43;-2.30;99.90
19007;DHT22;9636;47.382;8.480;2023-12-04T03:10:11;-2.50;99.90
19007;DHT22;9636;47.382;8.480;2023-12-04T03:12:37;-2.50;99.90
19007;DHT22;9636;47.382;8.480;2023-12-04T03:15:04;-2.70;99.90
19007;DHT22;9636;47.382;8.480;2023-12-04T03:17:32;-2.80;99.90
19007;DHT22;9636;47.382;8.480;2023-12-04T03:19:59;-2.80;99.90
19007;DHT22;9636;47.382;8.480;2023-12-04T03:22:26;-2.70;99.90
19007;DHT22;9636;47.382;8.480;2023-12-04T03:24:52;-2.40;99.90
19007;DHT22;9636;47.382;8.480;2023-12-04T03:27:19;-1.80;99.90
19007;DHT22;9636;47.382;8.480;2023-12-04T03:29:45;-1.40;99.90
19007;DHT22;9636;47.382;8.480;2023-12-04T03:32:12;-1.60;99.90
19007;DHT22;9636;47.382;8.480;2023-12-04T03:34:40;-1.40;99.90
19007;DHT22;9636;47.382;8.480;2023-12-04T03:37:06;-1.30;99.90
19007;DHT22;9636;47.382;8.480;2023-12-04T03:39:33;-1.50;99.90
19007;DHT22;9636;47.382;8.480;2023-12-04T03:42:00;-1.40;99.90
19007;DHT22;9636;47.382;8.480;2023-12-04T03:44:27;-0.90;99.90
19007;DHT22;9636;47.382;8.480;2023-12-04T03:46:54;-0.70;99.90
19007;DHT22;9636;47.382;8.480;2023-12-04T03:49:21;-0.90;99.90
19007;DHT22;9636;47.382;8.480;2023-12-04T03:51:49;-0.90;99.90
19007;DHT22;9636;47.382;8.480;2023-12-04T03:54:15;-1.00;99.90
19007;DHT22;9636;47.382;8.480;2023-12-04T03:56:42;-1.20;99.90
19007;DHT22;9636;47.382;8.480;2023-12-04T03:59:08;-1.10;99.90
19007;DHT22;9636;47.382;8.480;2023-12-04T04:01:35;-0.90;99.90
19007;DHT22;9636;47.382;8.480;2023-12-04T04:04:02;-1.00;99.90
19007;DHT22;9636;47.382;8.480;2023-12-04T04:06:28;-1.20;99.90
19007;DHT22;9636;47.382;8.480;2023-12-04T04:08:56;-1.00;99.90
19007;DHT22;9636;47.382;8.480;2023-12-04T04:11:23;-1.40;99.90
19007;DHT22;9636;47.382;8.480;2023-12-04T04:13:49;-1.50;99.90
19007;DHT22;9636;47.382;8.480;2023-12-04T04:16:16;-1.30;99.90
19007;DHT22;9636;47.382;8.480;2023-12-04T04:18:42;-1.40;99.90
19007;DHT22;9636;47.382;8.480;2023-12-04T04:21:09;-1.30;99.90
19007;DHT22;9636;47.382;8.480;2023-12-04T04:23:36;-1.40;99.90
19007;DHT22;9636;47.382;8.480;2023-12-04T04:26:04;-1.50;99.90
19007;DHT22;9636;47.382;8.480;2023-12-04T04:28:30;-1.50;99.90
19007;DHT22;9636;47.382;8.480;2023-12-04T04:30:57;-1.40;99.90
19007;DHT22;9636;47.382;8.480;2023-12-04T04:33:24;-1.00;99.90
19007;DHT22;9636;47.382;8.480;2023-12-04T04:35:50;-1.40;99.90
19007;DHT22;9636;47.382;8.480;2023-12-04T04:38:17;-1.20;99.90
19007;DHT22;9636;47.382;8.480;2023-12-04T04:40:44;-1.40;99.90
19007;DHT22;9636;47.382;8.480;2023-12-04T04:43:12;-1.10;99.90
19007;DHT22;9636;47.382;8.480;2023-12-04T04:45:38;-1.10;99.90
19007;DHT22;9636;47.382;8.480;2023-12-04T04:48:05;-1.20;99.90
19007;DHT22;9636;47.382;8.480;2023-12-04T04:50:32;-1.30;99.90
19007;DHT22;9636;47.382;8.480;2023-12-04T04:52:58;-1.60;99.90
19007;DHT22;9636;47.382;8.480;2023-12-04T04:55:25;-1.60;99.90
19007;DHT22;9636;47.382;8.480;2023-12-04T04:57:51;-1.50;99.90
19007;DHT22;9636;47.382;8.480;2023-12-04T05:00:20;-1.60;99.90
19007;DHT22;9636;47.382;8.480;2023-12-04T05:02:46;-1.30;99.90
19007;DHT22;9636;47.382;8.480;2023-12-04T05:05:13;-1.30;99.90
19007;DHT22;9636;47.382;8.480;2023-12-04T05:07:39;-1.30;99.90
19007;DHT22;9636;47.382;8.480;2023-12-04T05:10:06;-1.50;99.90
19007;DHT22;9636;47.382;8.480;2023-12-04T05:12:33;-1.60;99.90
19007;DHT22;9636;47.382;8.480;2023-12-04T05:14:59;-1.30;99.90
19007;DHT22;9636;47.382;8.480;2023-12-04T05:17:27;-0.90;99.90
19007;DHT22;9636;47.382;8.480;2023-12-04T05:19:54;-1.10;99.90
19007;DHT22;9636;47.382;8.480;2023-12-04T05:22:20;-1.50;99.90
19007;DHT22;9636;47.382;8.480;2023-12-04T05:24:47;-1.50;99.90
19007;DHT22;9636;47.382;8.480;2023-12-04T05:27:14;-1.50;99.90
19007;DHT22;9636;47.382;8.480;2023-12-04T05:29:40;-1.10;99.90
19007;DHT22;9636;47.382;8.480;2023-12-04T05:32:07;-1.70;99.90
19007;DHT22;9636;47.382;8.480;2023-12-04T05:34:35;-2.10;99.90
19007;DHT22;9636;47.382;8.480;2023-12-04T05:37:02;-2.30;99.90
19007;DHT22;9636;47.382;8.480;2023-12-04T05:39:28;-2.40;99.90
19007;DHT22;9636;47.382;8.480;2023-12-04T05:41:55;-2.20;99.90
19007;DHT22;9636;47.382;8.480;2023-12-04T05:44:21;-2.00;99.90
19007;DHT22;9636;47.382;8.480;2023-12-04T05:46:48;-1.80;99.90
19007;DHT22;9636;47.382;8.480;2023-12-04T05:49:15;-1.80;99.90
19007;DHT22;9636;47.382;8.480;2023-12-04T05:51:43;-2.00;99.90
19007;DHT22;9636;47.382;8.480;2023-12-04T05:54:09;-2.00;99.90
19007;DHT22;9636;47.382;8.480;2023-12-04T05:56:36;-2.20;99.90
19007;DHT22;9636;47.382;8.480;2023-12-04T05:59:02;-2.10;99.90
19007;DHT22;9636;47.382;8.480;2023-12-04T06:01:29;-2.20;99.90
19007;DHT22;9636;47.382;8.480;2023-12-04T06:03:56;-1.70;99.90
19007;DHT22;9636;47.382;8.480;2023-12-04T06:06:22;-1.40;99.90
19007;DHT22;9636;47.382;8.480;2023-12-04T06:08:50;-1.30;99.90
19007;DHT22;9636;47.382;8.480;2023-12-04T06:11:17;-1.00;99.90
19007;DHT22;9636;47.382;8.480;2023-12-04T06:13:43;-1.10;99.90
19007;DHT22;9636;47.382;8.480;2023-12-04T06:16:10;-1.10;99.90
19007;DHT22;9636;47.382;8.480;2023-12-04T06:18:37;-1.30;99.90
19007;DHT22;9636;47.382;8.480;2023-12-04T06:21:04;-0.90;99.90
19007;DHT22;9636;47.382;8.480;2023-12-04T06:23:31;-1.30;99.90
19007;DHT22;9636;47.382;8.480;2023-12-04T06:25:59;-1.30;99.90
19007;DHT22;9636;47.382;8.480;2023-12-04T06:28:26;-1.90;99.90
19007;DHT22;9636;47.382;8.480;2023-12-04T06:30:53;-2.20;99.90
19007;DHT22;9636;47.382;8.480;2023-12-04T06:33:20;-1.90;99.90
19007;DHT22;9636;47.382;8.480;2023-12-04T06:35:47;-2.20;99.90
19007;DHT22;9636;47.382;8.480;2023-12-04T06:38:14;-2.60;99.90
19007;DHT22;9636;47.382;8.480;2023-12-04T06:40:41;-2.20;99.90
19007;DHT22;9636;47.382;8.480;2023-12-04T06:43:10;-1.80;99.90
19007;DHT22;9636;47.382;8.480;2023-12-04T06:45:36;-1.60;99.90
19007;DHT22;9636;47.382;8.480;2023-12-04T06:48:03;-1.60;99.90
19007;DHT22;9636;47.382;8.480;2023-12-04T06:50:30;-2.20;99.90
19007;DHT22;9636;47.382;8.480;2023-12-04T06:52:57;-2.30;99.90
19007;DHT22;9636;47.382;8.480;2023-12-04T06:55:23;-1.80;99.90
19007;DHT22;9636;47.382;8.480;2023-12-04T06:57:50;-1.90;99.90
19007;DHT22;9636;47.382;8.480;2023-12-04T07:00:18;-2.00;99.90
19007;DHT22;9636;47.382;8.480;2023-12-04T07:02:44;-2.20;99.90
19007;DHT22;9636;47.382;8.480;2023-12-04T07:05:11;-1.90;99.90
19007;DHT22;9636;47.382;8.480;2023-12-04T07:07:38;-1.70;99.90
19007;DHT22;9636;47.382;8.480;2023-12-04T07:10:05;-1.80;99.90
19007;DHT22;9636;47.382;8.480;2023-12-04T07:12:31;-1.80;99.90
19007;DHT22;9636;47.382;8.480;2023-12-04T07:14:58;-1.50;99.90
19007;DHT22;9636;47.382;8.480;2023-12-04T07:17:26;-1.30;99.90
19007;DHT22;9636;47.382;8.480;2023-12-04T07:19:52;-1.50;99.90
19007;DHT22;9636;47.382;8.480;2023-12-04T07:22:19;-1.20;99.90
19007;DHT22;9636;47.382;8.480;2023-12-04T07:24:46;-0.90;99.90
19007;DHT22;9636;47.382;8.480;2023-12-04T07:27:12;-1.20;99.90
19007;DHT22;9636;47.382;8.480;2023-12-04T07:29:39;-1.30;99.90
19007;DHT22;9636;47.382;8.480;2023-12-04T07:32:06;-1.10;99.90
19007;DHT22;9636;47.382;8.480;2023-12-04T07:34:34;-0.70;99.90
19007;DHT22;9636;47.382;8.480;2023-12-04T07:37:02;-0.50;99.90
19007;DHT22;9636;47.382;8.480;2023-12-04T07:39:28;-0.60;99.90
19007;DHT22;9636;47.382;8.480;2023-12-04T07:41:55;-0.40;99.90
19007;DHT22;9636;47.382;8.480;2023-12-04T07:44:22;-0.60;99.90
19007;DHT22;9636;47.382;8.480;2023-12-04T07:46:48;-0.80;99.90
19007;DHT22;9636;47.382;8.480;2023-12-04T07:49:15;-0.60;99.90
19007;DHT22;9636;47.382;8.480;2023-12-04T07:51:43;-1.10;99.90
19007;DHT22;9636;47.382;8.480;2023-12-04T07:54:09;-1.20;99.90
19007;DHT22;9636;47.382;8.480;2023-12-04T07:56:36;-1.00;99.90
19007;DHT22;9636;47.382;8.480;2023-12-04T07:59:03;-0.80;99.90
19007;DHT22;9636;47.382;8.480;2023-12-04T08:01:30;-0.90;99.90
19007;DHT22;9636;47.382;8.480;2023-12-04T08:03:56;-0.70;99.90
19007;DHT22;9636;47.382;8.480;2023-12-04T08:06:23;-1.00;99.90
19007;DHT22;9636;47.382;8.480;2023-12-04T08:08:51;-1.10;99.90
19007;DHT22;9636;47.382;8.480;2023-12-04T08:11:18;-0.80;99.90
19007;DHT22;9636;47.382;8.480;2023-12-04T08:13:44;-0.80;99.90
19007;DHT22;9636;47.382;8.480;2023-12-04T08:16:14;-0.90;99.90
19007;DHT22;9636;47.382;8.480;2023-12-04T08:18:41;-0.80;99.90
19007;DHT22;9636;47.382;8.480;2023-12-04T08:21:09;-1.10;99.90
19007;DHT22;9636;47.382;8.480;2023-12-04T08:23:35;-1.30;99.90
19007;DHT22;9636;47.382;8.480;2023-12-04T08:26:03;-1.00;99.90
19007;DHT22;9636;47.382;8.480;2023-12-04T08:28:30;-0.70;99.90
19007;DHT22;9636;47.382;8.480;2023-12-04T08:30:57;-0.70;99.90
19007;DHT22;9636;47.382;8.480;2023-12-04T08:33:23;-0.60;99.90
19007;DHT22;9636;47.382;8.480;2023-12-04T08:35:50;-0.90;99.90
19007;DHT22;9636;47.382;8.480;2023-12-04T08:38:17;-1.40;99.90
19007;DHT22;9636;47.382;8.480;2023-12-04T08:40:44;-1.20;99.90
19007;DHT22;9636;47.382;8.480;2023-12-04T08:43:12;-0.80;99.90
19007;DHT22;9636;47.382;8.480;2023-12-04T08:45:38;-0.70;99.90
19007;DHT22;9636;47.382;8.480;2023-12-04T08:48:05;-0.80;99.90
19007;DHT22;9636;47.382;8.480;2023-12-04T08:50:32;-0.60;99.90
19007;DHT22;9636;47.382;8.480;2023-12-04T08:52:58;-0.30;99.90
19007;DHT22;9636;47.382;8.480;2023-12-04T08:55:25;-0.60;99.90
19007;DHT22;9636;47.382;8.480;2023-12-04T08:57:52;-0.50;99.90
19007;DHT22;9636;47.382;8.480;2023-12-04T09:00:20;-1.10;99.90
19007;DHT22;9636;47.382;8.480;2023-12-04T09:02:47;-1.20;99.90
19007;DHT22;9636;47.382;8.480;2023-12-04T09:05:14;-0.90;99.90
19007;DHT22;9636;47.382;8.480;2023-12-04T09:07:41;-1.00;99.90
19007;DHT22;9636;47.382;8.480;2023-12-04T09:10:07;-1.00;99.90
19007;DHT22;9636;47.382;8.480;2023-12-04T09:12:34;-1.10;99.90
19007;DHT22;9636;47.382;8.480;2023-12-04T09:15:03;-0.90;99.90
19007;DHT22;9636;47.382;8.480;2023-12-04T09:17:31;-0.80;99.90
19007;DHT22;9636;47.382;8.480;2023-12-04T09:19:58;-0.70;99.90
19007;DHT22;9636;47.382;8.480;2023-12-04T09:22:25;-0.50;99.90
19007;DHT22;9636;47.382;8.480;2023-12-04T09:24:51;-0.40;99.90
19007;DHT22;9636;47.382;8.480;2023-12-04T09:27:18;-0.60;99.90
19007;DHT22;9636;47.382;8.480;2023-12-04T09:29:44;-0.60;99.90
19007;DHT22;9636;47.382;8.480;2023-12-04T09:32:11;-0.30;99.90
19007;DHT22;9636;47.382;8.480;2023-12-04T09:34:39;-0.50;99.90
19007;DHT22;9636;47.382;8.480;2023-12-04T09:37:06;-0.20;99.90
19007;DHT22;9636;47.382;8.480;2023-12-04T09:39:33;-0.30;99.90
19007;DHT22;9636;47.382;8.480;2023-12-04T09:41:59;-0.40;99.90
19007;DHT22;9636;47.382;8.480;2023-12-04T09:44:26;-0.20;99.90
19007;DHT22;9636;47.382;8.480;2023-12-04T09:46:54;-0.30;99.90
19007;DHT22;9636;47.382;8.480;2023-12-04T09:49:21;-0.40;99.90
19007;DHT22;9636;47.382;8.480;2023-12-04T09:51:50;-0.40;99.90
19007;DHT22;9636;47.382;8.480;2023-12-04T09:54:16;-0.10;99.90
19007;DHT22;9636;47.382;8.480;2023-12-04T09:56:44;0.10;99.90
19007;DHT22;9636;47.382;8.480;2023-12-04T09:59:12;0.10;99.90
19007;DHT22;9636;47.382;8.480;2023-12-04T10:01:40;0.20;99.90
19007;DHT22;9636;47.382;8.480;2023-12-04T10:04:06;0.30;99.90
19007;DHT22;9636;47.382;8.480;2023-12-04T10:06:33;-0.10;99.90
19007;DHT22;9636;47.382;8.480;2023-12-04T10:09:01;0.20;99.90
19007;DHT22;9636;47.382;8.480;2023-12-04T10:11:28;0.30;99.90
19007;DHT22;9636;47.382;8.480;2023-12-04T10:13:56;0.60;99.90
19007;DHT22;9636;47.382;8.480;2023-12-04T10:16:32;0.40;99.90
19007;DHT22;9636;47.382;8.480;2023-12-04T10:19:13;0.10;99.90
19007;DHT22;9636;47.382;8.480;2023-12-04T10:21:40;-0.20;99.90
19007;DHT22;9636;47.382;8.480;2023-12-04T10:24:08;0.10;99.90
19007;DHT22;9636;47.382;8.480;2023-12-04T10:26:35;0.10;99.90
19007;DHT22;9636;47.382;8.480;2023-12-04T10:29:02;0.30;99.90
19007;DHT22;9636;47.382;8.480;2023-12-04T10:31:31;0.60;99.90
19007;DHT22;9636;47.382;8.480;2023-12-04T10:33:58;0.90;99.90
19007;DHT22;9636;47.382;8.480;2023-12-04T10:36:25;1.10;99.90
19007;DHT22;9636;47.382;8.480;2023-12-04T10:38:57;1.00;99.90
19007;DHT22;9636;47.382;8.480;2023-12-04T10:41:26;0.70;99.90
19007;DHT22;9636;47.382;8.480;2023-12-04T10:43:52;0.80;99.90
19007;DHT22;9636;47.382;8.480;2023-12-04T10:46:19;0.80;99.90
19007;DHT22;9636;47.382;8.480;2023-12-04T10:48:47;0.90;99.90
19007;DHT22;9636;47.382;8.480;2023-12-04T10:51:14;0.50;99.90
19007;DHT22;9636;47.382;8.480;2023-12-04T10:53:42;0.60;99.90
19007;DHT22;9636;47.382;8.480;2023-12-04T10:56:10;0.90;99.90
19007;DHT22;9636;47.382;8.480;2023-12-04T10:58:43;1.10;99.90
19007;DHT22;9636;47.382;8.480;2023-12-04T11:01:11;1.10;99.90
19007;DHT22;9636;47.382;8.480;2023-12-04T11:03:40;1.10;99.90
19007;DHT22;9636;47.382;8.480;2023-12-04T11:06:10;1.10;99.90
19007;DHT22;9636;47.382;8.480;2023-12-04T11:08:38;0.90;99.90
19007;DHT22;9636;47.382;8.480;2023-12-04T11:11:06;0.30;99.90
19007;DHT22;9636;47.382;8.480;2023-12-04T11:13:35;0.20;99.90
19007;DHT22;9636;47.382;8.480;2023-12-04T11:16:06;0.50;99.90
19007;DHT22;9636;47.382;8.480;2023-12-04T11:18:35;0.60;99.90
19007;DHT22;9636;47.382;8.480;2023-12-04T11:21:05;1.00;99.90
19007;DHT22;9636;47.382;8.480;2023-12-04T11:23:33;0.80;99.90
19007;DHT22;9636;47.382;8.480;2023-12-04T11:26:00;1.20;99.90
19007;DHT22;9636;47.382;8.480;2023-12-04T11:28:28;1.30;99.90
19007;DHT22;9636;47.382;8.480;2023-12-04T11:30:56;1.40;99.90
19007;DHT22;9636;47.382;8.480;2023-12-04T11:33:25;1.10;99.90
19007;DHT22;9636;47.382;8.480;2023-12-04T11:35:51;1.20;99.90
19007;DHT22;9636;47.382;8.480;2023-12-04T11:38:18;1.30;99.90
19007;DHT22;9636;47.382;8.480;2023-12-04T11:40:45;1.10;99.90
19007;DHT22;9636;47.382;8.480;2023-12-04T11:43:22;1.00;99.90
19007;DHT22;9636;47.382;8.480;2023-12-04T11:45:49;0.90;99.90
19007;DHT22;9636;47.382;8.480;2023-12-04T11:48:15;1.00;99.90
19007;DHT22;9636;47.382;8.480;2023-12-04T11:50:44;0.50;99.90
19007;DHT22;9636;47.382;8.480;2023-12-04T11:53:10;0.50;99.90
19007;DHT22;9636;47.382;8.480;2023-12-04T11:55:39;0.40;99.90
19007;DHT22;9636;47.382;8.480;2023-12-04T11:58:08;0.60;99.90
19007;DHT22;9636;47.382;8.480;2023-12-04T12:00:35;0.60;99.90
19007;DHT22;9636;47.382;8.480;2023-12-04T12:03:03;0.60;99.90
19007;DHT22;9636;47.382;8.480;2023-12-04T12:05:32;0.80;99.90
19007;DHT22;9636;47.382;8.480;2023-12-04T12:08:01;0.90;99.90
19007;DHT22;9636;47.382;8.480;2023-12-04T12:10:28;1.40;99.90
19007;DHT22;9636;47.382;8.480;2023-12-04T12:12:55;1.10;99.90
19007;DHT22;9636;47.382;8.480;2023-12-04T12:15:22;0.80;99.90
19007;DHT22;9636;47.382;8.480;2023-12-04T12:17:49;0.90;99.90
19007;DHT22;9636;47.382;8.480;2023-12-04T12:20:16;0.80;99.90
19007;DHT22;9636;47.382;8.480;2023-12-04T12:22:42;1.30;99.90
19007;DHT22;9636;47.382;8.480;2023-12-04T12:25:11;1.10;99.90
19007;DHT22;9636;47.382;8.480;2023-12-04T12:27:38;0.80;99.90
19007;DHT22;9636;47.382;8.480;2023-12-04T12:30:05;0.90;99.90
19007;DHT22;9636;47.382;8.480;2023-12-04T12:32:33;0.90;99.90
19007;DHT22;9636;47.382;8.480;2023-12-04T12:34:59;1.30;99.90
19007;DHT22;9636;47.382;8.480;2023-12-04T12:37:26;1.20;99.90
19007;DHT22;9636;47.382;8.480;2023-12-04T12:39:53;1.10;99.90
19007;DHT22;9636;47.382;8.480;2023-12-04T12:42:24;1.10;99.90
19007;DHT22;9636;47.382;8.480;2023-12-04T12:44:51;1.10;99.90
19007;DHT22;9636;47.382;8.480;2023-12-04T12:47:19;1.30;99.90
19007;DHT22;9636;47.382;8.480;2023-12-04T12:49:46;0.80;99.90
19007;DHT22;9636;47.382;8.480;2023-12-04T12:52:14;0.80;99.90
19007;DHT22;9636;47.382;8.480;2023-12-04T12:54:41;0.80;99.90
19007;DHT22;9636;47.382;8.480;2023-12-04T12:57:09;0.60;99.90
19007;DHT22;9636;47.382;8.480;2023-12-04T12:59:38;0.80;99.90
19007;DHT22;9636;47.382;8.480;2023-12-04T13:02:05;1.10;99.90
19007;DHT22;9636;47.382;8.480;2023-12-04T13:04:35;1.40;99.90
19007;DHT22;9636;47.382;8.480;2023-12-04T13:07:02;1.50;99.90
19007;DHT22;9636;47.382;8.480;2023-12-04T13:09:31;1.40;99.90
19007;DHT22;9636;47.382;8.480;2023-12-04T13:11:57;1.50;99.90
19007;DHT22;9636;47.382;8.480;2023-12-04T13:14:25;1.30;99.90
19007;DHT22;9636;47.382;8.480;2023-12-04T13:16:53;1.20;99.90
19007;DHT22;9636;47.382;8.480;2023-12-04T13:19:21;1.30;99.90
19007;DHT22;9636;47.382;8.480;2023-12-04T13:21:48;1.20;99.90
19007;DHT22;9636;47.382;8.480;2023-12-04T13:24:14;1.20;99.90
19007;DHT22;9636;47.382;8.480;2023-12-04T13:26:41;1.40;99.90
19007;DHT22;9636;47.382;8.480;2023-12-04T13:29:08;1.20;99.90
19007;DHT22;9636;47.382;8.480;2023-12-04T13:31:34;1.20;99.90
19007;DHT22;9636;47.382;8.480;2023-12-04T13:34:03;1.20;99.90
19007;DHT22;9636;47.382;8.480;2023-12-04T13:36:31;1.40;99.90
19007;DHT22;9636;47.382;8.480;2023-12-04T13:38:58;1.30;99.90
19007;DHT22;9636;47.382;8.480;2023-12-04T13:41:25;1.30;99.90
19007;DHT22;9636;47.382;8.480;2023-12-04T13:44:09;1.30;99.90
19007;DHT22;9636;47.382;8.480;2023-12-04T13:46:39;1.30;99.90
19007;DHT22;9636;47.382;8.480;2023-12-04T13:49:07;1.30;99.90
19007;DHT22;9636;47.382;8.480;2023-12-04T13:51:35;1.40;99.90
19007;DHT22;9636;47.382;8.480;2023-12-04T13:54:05;1.30;99.90
19007;DHT22;9636;47.382;8.480;2023-12-04T13:56:45;1.30;99.90
19007;DHT22;9636;47.382;8.480;2023-12-04T13:59:18;1.30;99.90
19007;DHT22;9636;47.382;8.480;2023-12-04T14:01:45;1.30;99.90
19007;DHT22;9636;47.382;8.480;2023-12-04T14:04:13;1.40;99.90
19007;DHT22;9636;47.382;8.480;2023-12-04T14:06:40;1.30;99.90
19007;DHT22;9636;47.382;8.480;2023-12-04T14:09:06;1.30;99.90
19007;DHT22;9636;47.382;8.480;2023-12-04T14:11:39;1.30;99.90
19007;DHT22;9636;47.382;8.480;2023-12-04T14:14:06;1.40;99.90
19007;DHT22;9636;47.382;8.480;2023-12-04T14:16:33;1.20;99.90
19007;DHT22;9636;47.382;8.480;2023-12-04T14:18:59;1.50;99.90
19007;DHT22;9636;47.382;8.480;2023-12-04T14:21:27;1.20;99.90
19007;DHT22;9636;47.382;8.480;2023-12-04T14:23:54;1.40;99.90
19007;DHT22;9636;47.382;8.480;2023-12-04T14:26:21;0.90;99.90
19007;DHT22;9636;47.382;8.480;2023-12-04T14:28:47;0.60;99.90
19007;DHT22;9636;47.382;8.480;2023-12-04T14:31:14;0.80;99.90
19007;DHT22;9636;47.382;8.480;2023-12-04T14:33:41;1.40;99.90
19007;DHT22;9636;47.382;8.480;2023-12-04T14:36:08;1.40;99.90
19007;DHT22;9636;47.382;8.480;2023-12-04T14:38:36;1.20;99.90
19007;DHT22;9636;47.382;8.480;2023-12-04T14:41:03;1.50;99.90
19007;DHT22;9636;47.382;8.480;2023-12-04T14:43:32;1.50;99.90
19007;DHT22;9636;47.382;8.480;2023-12-04T14:45:59;1.10;99.90
19007;DHT22;9636;47.382;8.480;2023-12-04T14:48:25;0.80;99.90
19007;DHT22;9636;47.382;8.480;2023-12-04T14:50:53;0.70;99.90
19007;DHT22;9636;47.382;8.480;2023-12-04T14:53:20;0.90;99.90
19007;DHT22;9636;47.382;8.480;2023-12-04T14:55:56;1.30;99.90
19007;DHT22;9636;47.382;8.480;2023-12-04T14:58:51;1.50;99.90
19007;DHT22;9636;47.382;8.480;2023-12-04T15:01:35;1.30;99.90
19007;DHT22;9636;47.382;8.480;2023-12-04T15:04:32;1.20;99.90
19007;DHT22;9636;47.382;8.480;2023-12-04T15:07:13;1.40;99.90
19007;DHT22;9636;47.382;8.480;2023-12-04T15:10:02;1.20;99.90
19007;DHT22;9636;47.382;8.480;2023-12-04T15:12:51;1.00;99.90
19007;DHT22;9636;47.382;8.480;2023-12-04T15:15:32;1.00;99.90
19007;DHT22;9636;47.382;8.480;2023-12-04T15:18:10;0.90;99.90
19007;DHT22;9636;47.382;8.480;2023-12-04T15:20:51;0.80;99.90
19007;DHT22;9636;47.382;8.480;2023-12-04T15:23:17;1.30;99.90
19007;DHT22;9636;47.382;8.480;2023-12-04T15:25:44;1.00;99.90
19007;DHT22;9636;47.382;8.480;2023-12-04T15:28:12;1.20;99.90
19007;DHT22;9636;47.382;8.480;2023-12-04T15:30:39;1.40;99.90
19007;DHT22;9636;47.382;8.480;2023-12-04T15:33:06;1.40;99.90
19007;DHT22;9636;47.382;8.480;2023-12-04T15:35:32;1.20;99.90
19007;DHT22;9636;47.382;8.480;2023-12-04T15:37:58;1.10;99.90
19007;DHT22;9636;47.382;8.480;2023-12-04T15:40:24;1.20;99.90
19007;DHT22;9636;47.382;8.480;2023-12-04T15:42:51;1.00;99.90
19007;DHT22;9636;47.382;8.480;2023-12-04T15:45:18;1.00;99.90
19007;DHT22;9636;47.382;8.480;2023-12-04T15:47:44;1.20;99.90
19007;DHT22;9636;47.382;8.480;2023-12-04T15:50:10;1.20;99.90
19007;DHT22;9636;47.382;8.480;2023-12-04T15:52:37;1.00;99.90
19007;DHT22;9636;47.382;8.480;2023-12-04T15:55:05;1.30;99.90